Time;durP1;ratioP1;P1;durP2;ratioP2;P2;SDS_P1;SDS_P2;PMS_P1;PMS_P2;Temp;Humidity;BMP_temperature;BMP_pressure;BME280_temperature;BME280_humidity;BME280_pressure;Samples;Min_cycle;Max_cycle;Signal;HPM_P1;HPM_P2
2022/12/28 18:05:33;;;;;;;15.48;7.00;;;22.00;77.80;;;22.12;70.03;100232.31;5018228;27;20214;-51
2022/12/28 18:08:00;;;;;;;17.60;7.68;;;22.40;75.00;;;22.31;67.60;100235.31;5022015;28;20513;-47
2022/12/28 18:10:27;;;;;;;18.25;7.55;;;22.60;74.30;;;22.49;66.63;100225.03;5019355;28;20137;-50
2022/12/28 18:12:54;;;;;;;18.95;6.75;;;22.90;73.90;;;22.66;65.15;100225.56;5019816;28;20429;-47
2022/12/28 18:15:21;;;;;;;15.93;6.55;;;23.20;73.40;;;22.77;63.71;100217.53;5008323;28;20050;-47
2022/12/28 18:17:48;;;;;;;15.00;6.75;;;23.40;73.00;;;22.87;63.35;100208.75;5009753;28;20128;-47
2022/12/28 18:20:15;;;;;;;17.83;7.43;;;23.50;72.60;;;22.94;62.67;100215.34;5004185;28;20444;-47
2022/12/28 18:22:42;;;;;;;13.90;6.35;;;23.70;72.40;;;23.06;61.41;100197.44;4997525;28;20050;-50
2022/12/28 18:25:09;;;;;;;16.02;7.03;;;23.80;71.80;;;23.12;61.38;100190.72;5011028;28;20038;-47
2022/12/28 18:27:39;;;;;;;16.42;6.43;;;23.90;71.90;;;23.24;61.14;100192.41;5008157;28;20037;-45
2022/12/28 18:30:07;;;;;;;14.35;6.10;;;24.00;71.80;;;23.27;61.53;100188.66;5020772;28;20038;-45
2022/12/28 18:32:35;;;;;;;13.63;6.80;;;24.10;71.70;;;23.28;61.44;100176.97;5013613;28;20064;-49
2022/12/28 18:35:02;;;;;;;16.30;6.50;;;24.10;71.50;;;23.30;61.01;100172.31;5016032;28;20045;-48
2022/12/28 18:37:29;;;;;;;12.82;6.20;;;24.20;71.30;;;23.33;60.10;100162.19;5012606;28;20553;-49
2022/12/28 18:39:56;;;;;;;15.85;6.60;;;24.20;71.00;;;23.38;59.30;100151.09;5009873;28;20049;-48
2022/12/28 18:42:24;;;;;;;13.93;5.70;;;24.30;71.00;;;23.41;59.68;100149.97;5010726;28;20120;-48
2022/12/28 18:44:51;;;;;;;17.90;7.18;;;24.40;70.80;;;23.43;59.73;100154.22;5010134;28;20037;-48
2022/12/28 18:47:18;;;;;;;11.65;6.18;;;24.40;70.70;;;23.49;59.79;100156.44;5008949;28;20121;-46
2022/12/28 18:49:47;;;;;;;11.25;5.70;;;24.50;70.60;;;23.53;59.26;100156.16;5002946;28;20053;-47
2022/12/28 18:52:15;;;;;;;15.63;6.68;;;24.50;70.60;;;23.57;59.21;100136.13;5044769;28;74463;-47
2022/12/28 18:54:42;;;;;;;13.75;6.00;;;24.50;70.40;;;23.56;59.08;100146.00;5055946;28;20037;-47
2022/12/28 18:57:10;;;;;;;13.05;6.93;;;24.50;70.30;;;23.60;58.38;100146.63;5047562;28;20041;-46
2022/12/28 18:59:37;;;;;;;12.88;6.25;;;24.50;70.10;;;23.50;58.62;100149.22;5041538;28;20060;-48
2022/12/28 19:02:04;;;;;;;14.32;6.40;;;24.50;70.10;;;23.54;58.64;100155.19;5044672;28;20037;-48
2022/12/28 19:04:34;;;;;;;14.15;6.35;;;24.50;70.20;;;23.59;58.28;100152.97;5021298;28;20141;-46
2022/12/28 19:09:04;;;;;;;10.48;5.82;;;24.70;74.00;;;24.43;55.47;100162.13;5043599;28;20447;-59
2022/12/28 19:11:32;;;;;;;12.27;6.20;;;25.20;69.00;;;23.97;56.51;100156.13;5021045;28;20418;-58
2022/12/28 19:14:02;;;;;;;12.88;5.47;;;25.20;68.70;;;23.89;57.44;100151.41;5020770;28;20533;-59
2022/12/28 19:19:31;;;;;;;12.15;10.85;;;24.20;55.80;;;13.50;58.12;100173.22;5120829;27;20832;-71
2022/12/28 19:21:59;;;;;;;11.60;10.30;;;20.90;57.70;;;11.00;91.20;100175.38;5070237;28;20049;-71
2022/12/28 19:24:26;;;;;;;14.85;12.68;;;17.90;62.10;;;9.69;100.00;100169.13;5033355;28;20052;-71
2022/12/28 19:26:55;;;;;;;23.75;17.55;;;15.50;67.30;;;9.00;100.00;100161.88;5026358;28;20068;-73
2022/12/28 19:29:23;;;;;;;28.35;20.45;;;13.60;71.10;;;8.34;100.00;100170.97;5036691;28;20130;-72
2022/12/28 19:31:50;;;;;;;30.17;20.15;;;12.80;74.70;;;8.02;100.00;100167.16;5044936;28;20090;-72
2022/12/28 19:34:18;;;;;;;32.10;21.45;;;11.30;77.00;;;7.79;100.00;100167.50;5018927;28;20045;-72
2022/12/28 19:36:45;;;;;;;28.58;20.90;;;10.50;78.60;;;7.60;100.00;100161.69;5049073;28;20386;-72
2022/12/28 19:39:12;;;;;;;26.40;18.50;;;10.00;80.90;;;7.49;100.00;100156.63;5054335;28;20793;-72
2022/12/28 19:41:39;;;;;;;16.80;12.68;;;9.70;82.70;;;7.30;100.00;100149.03;5017374;28;20493;-72
2022/12/28 19:44:07;;;;;;;16.30;12.07;;;9.50;84.10;;;7.24;100.00;100143.88;5034759;28;20045;-71
2022/12/28 19:46:34;;;;;;;14.35;10.18;;;9.20;84.90;;;7.17;100.00;100147.47;5033653;28;20094;-72
2022/12/28 19:49:03;;;;;;;13.20;10.00;;;9.00;86.40;;;7.04;100.00;100145.00;5028972;28;20052;-74
2022/12/28 19:51:32;;;;;;;13.70;9.10;;;9.00;87.10;;;7.01;100.00;100144.16;5044330;28;20044;-74
2022/12/28 19:54:00;;;;;;;13.35;10.60;;;8.80;88.00;;;6.98;100.00;100145.09;5057710;28;20045;-74
2022/12/28 19:56:28;;;;;;;12.50;9.20;;;8.40;88.60;;;6.88;100.00;100133.88;5032158;28;20045;-74
2022/12/28 19:58:57;;;;;;;10.52;8.25;;;8.60;88.60;;;6.89;100.00;100134.75;5029312;28;20051;-74
2022/12/28 20:01:35;;;;;;;10.18;7.72;;;8.50;89.40;;;6.98;100.00;100136.38;5042108;28;20044;-74
2022/12/28 20:04:04;;;;;;;10.18;7.00;;;8.50;90.30;;;6.92;100.00;100121.63;5040443;28;20128;-73
2022/12/28 20:06:43;;;;;;;9.73;8.00;;;8.50;90.10;;;6.88;100.00;100123.44;5052981;28;20124;-74
2022/12/28 20:09:12;;;;;;;7.22;6.10;;;8.40;90.30;;;6.85;100.00;100119.97;5042152;28;20140;-74
2022/12/28 20:11:41;;;;;;;8.27;7.32;;;8.40;90.60;;;6.85;100.00;100114.75;5049173;28;20045;-73
2022/12/28 20:14:13;;;;;;;9.20;6.90;;;9.00;90.50;;;6.82;100.00;100118.25;5028119;28;20045;-72
2022/12/28 20:16:45;;;;;;;10.55;6.88;;;8.30;90.70;;;6.78;100.00;100117.41;5040650;28;20459;-72
2022/12/28 20:19:15;;;;;;;9.73;8.18;;;8.30;90.50;;;6.79;100.00;100111.34;5028710;28;20424;-73
2022/12/28 20:21:48;;;;;;;8.15;6.90;;;7.70;90.60;;;6.74;100.00;100112.28;5040751;28;20076;-72
2022/12/28 20:24:20;;;;;;;10.77;8.90;;;8.20;91.00;;;6.64;100.00;100112.38;5008049;28;20064;-74
2022/12/28 20:26:47;;;;;;;12.85;9.43;;;8.20;91.30;;;6.61;100.00;100098.47;5054255;28;20493;-70
2022/12/28 20:29:17;;;;;;;11.25;9.63;;;8.10;91.60;;;6.61;100.00;100095.84;5054395;28;20052;-73
2022/12/28 20:31:47;;;;;;;14.13;11.20;;;8.20;91.70;;;6.51;100.00;100102.94;5037544;28;20067;-74
2022/12/28 20:34:18;;;;;;;12.82;11.25;;;8.10;91.50;;;6.29;100.00;100086.63;5043465;28;20075;-75
2022/12/28 20:36:49;;;;;;;11.55;9.68;;;8.00;91.90;;;6.33;100.00;100088.34;5046694;28;20091;-75
2022/12/28 20:39:25;;;;;;;10.68;9.50;;;8.00;91.70;;;6.29;100.00;100089.25;5048022;28;20048;-76
2022/12/28 20:44:38;;;;;;;7.35;5.35;;;7.90;92.00;;;7.03;100.00;100087.50;5028353;28;20113;-76
2022/12/28 20:47:09;;;;;;;9.90;6.22;;;9.70;92.50;;;7.21;100.00;100082.00;5054519;28;20045;-75
2022/12/28 20:49:44;;;;;;;7.35;4.65;;;8.20;91.80;;;7.50;100.00;100079.81;5035624;28;20060;-75
2022/12/28 20:52:12;;;;;;;5.82;4.63;;;8.40;91.90;;;7.73;100.00;100081.19;5046785;28;20098;-74
2022/12/28 20:54:39;;;;;;;5.55;3.65;;;8.60;91.50;;;8.03;100.00;100077.16;5034371;28;20048;-76
2022/12/28 20:57:08;;;;;;;4.53;2.85;;;8.90;91.40;;;8.18;100.00;100077.78;5046274;28;20118;-75
2022/12/28 20:59:50;;;;;;;5.50;3.00;;;9.10;90.90;;;8.32;100.00;100072.25;5048876;28;20090;-75
2022/12/28 21:02:24;;;;;;;5.23;3.00;;;8.90;90.50;;;8.39;100.00;100063.38;5047107;28;20037;-76
2022/12/28 21:04:58;;;;;;;5.70;3.03;;;9.40;90.50;;;8.51;100.00;100054.44;5035851;28;20042;-75
2022/12/28 21:07:32;;;;;;;3.78;2.58;;;9.50;90.30;;;8.82;100.00;100058.16;5043020;28;20045;-76
2022/12/28 21:10:09;;;;;;;3.97;2.92;;;9.60;90.10;;;8.77;100.00;100037.31;5047312;28;20053;-76
2022/12/28 21:12:54;;;;;;;2.90;2.45;;;9.80;90.10;;;8.96;100.00;100050.00;4998856;28;20412;-74
2022/12/28 21:15:33;;;;;;;;;;;10.00;89.70;;;9.02;100.00;100036.72;4994720;28;20069;-76
2022/12/28 21:18:11;;;;;;;2.70;2.35;;;9.40;89.10;;;9.08;100.00;100042.72;5111506;22;19925;-79
2022/12/28 21:20:50;;;;;;;;;;;10.10;88.80;;;9.27;100.00;100044.88;4991612;28;20043;-80
2022/12/28 21:23:17;;;;;;;3.55;2.10;;;10.20;88.40;;;9.34;100.00;100045.59;5008768;28;19929;-80
2022/12/28 21:25:45;;;;;;;2.90;2.35;;;10.30;88.00;;;9.33;100.00;100044.75;4987026;28;20637;-79
2022/12/28 21:28:12;;;;;;;3.83;2.08;;;10.30;88.20;;;9.27;100.00;100036.16;5014294;28;20477;-79
2022/12/28 21:30:39;;;;;;;5.13;2.90;;;10.40;88.10;;;9.32;100.00;100031.66;5003894;28;20545;-78
2022/12/28 21:33:06;;;;;;;6.85;4.28;;;10.40;87.90;;;9.28;100.00;100036.13;5010110;28;20669;-79
2022/12/28 21:35:34;;;;;;;7.15;3.50;;;10.30;88.00;;;9.25;100.00;100035.34;5011676;28;20054;-79
2022/12/28 21:38:03;;;;;;;8.02;3.33;;;10.40;88.20;;;9.18;100.00;100035.47;4993709;28;20331;-80
2022/12/28 21:40:30;;;;;;;6.38;3.65;;;10.30;88.30;;;9.14;100.00;100027.72;5021480;28;20045;-80
2022/12/28 21:42:59;;;;;;;4.68;3.10;;;11.30;89.20;;;9.11;100.00;100022.53;5007860;28;20045;-81
2022/12/28 21:45:28;;;;;;;4.43;2.97;;;10.30;88.80;;;9.14;100.00;100028.56;5032147;28;20046;-81
2022/12/28 21:47:55;;;;;;;4.22;2.95;;;10.30;88.70;;;9.14;100.00;100030.34;5023324;28;20070;-81
2022/12/28 21:50:22;;;;;;;5.68;4.55;;;10.30;88.80;;;9.11;100.00;100027.78;5007505;28;20125;-80
2022/12/28 21:52:49;;;;;;;12.18;9.98;;;10.30;89.10;;;9.01;100.00;100025.38;5005593;28;20585;-81
2022/12/28 21:58:02;;;;;;;6.68;5.78;;;10.20;89.50;;;9.00;100.00;100039.41;4999857;28;20049;-82
2022/12/28 22:06:02;;;;;;;13.68;7.88;;;10.10;89.80;;;8.60;100.00;100041.16;5012575;28;20140;-81
2022/12/28 22:14:06;;;;;;;10.07;7.25;;;10.50;90.20;;;7.97;100.00;100034.50;5027882;28;20045;-80
2022/12/28 22:16:34;;;;;;;12.02;7.15;;;9.60;90.30;;;7.85;100.00;100031.19;5013241;28;20082;-80
2022/12/28 22:19:03;;;;;;;11.38;8.23;;;10.60;90.80;;;7.68;100.00;100022.78;5006902;28;20491;-80
2022/12/28 22:21:31;;;;;;;10.40;7.60;;;9.30;90.40;;;7.72;100.00;100027.06;5008538;28;20030;-80
2022/12/28 22:23:58;;;;;;;8.32;7.15;;;9.90;91.00;;;7.69;100.00;100028.00;4992115;28;20038;-80
2022/12/28 22:26:25;;;;;;;8.93;8.02;;;9.20;90.70;;;7.69;100.00;100021.88;5009138;28;20041;-80
2022/12/28 22:28:52;;;;;;;8.40;7.50;;;9.20;90.90;;;7.73;100.00;100026.19;4994442;28;20080;-80
2022/12/28 22:31:19;;;;;;;8.82;7.65;;;10.50;91.60;;;7.69;100.00;100032.34;4990800;28;20045;-80
2022/12/28 22:33:46;;;;;;;11.38;10.25;;;9.10;91.20;;;7.64;100.00;100029.81;4990496;28;20574;-79
2022/12/28 22:36:17;;;;;;;12.82;10.95;;;10.20;91.50;;;7.64;100.00;100040.28;4987978;28;20101;-80
2022/12/28 22:38:45;;;;;;;12.23;10.82;;;9.10;91.30;;;7.61;100.00;100040.34;5010084;28;20033;-79
2022/12/28 22:46:10;;;;;;;12.15;10.80;;;9.00;91.20;;;7.78;100.00;100033.06;5015016;22;20081;-76
2022/12/28 22:48:38;;;;;;;13.73;11.43;;;9.10;92.00;;;7.75;100.00;100038.34;4977755;28;20053;-75
2022/12/28 22:51:11;;;;;;;11.95;10.75;;;9.10;92.00;;;7.72;100.00;100029.69;4988633;28;20528;-76
2022/12/28 22:53:39;;;;;;;12.15;10.25;;;9.10;92.30;;;7.85;100.00;100038.22;4986903;28;20046;-76
2022/12/28 22:56:18;;;;;;;13.40;11.48;;;9.10;92.50;;;7.65;100.00;100039.44;5010366;28;20053;-76
2022/12/28 22:58:47;;;;;;;11.63;10.10;;;7.40;92.10;;;7.69;100.00;100040.22;5004143;28;20044;-77
2022/12/28 23:01:18;;;;;;;13.00;11.23;;;9.10;92.20;;;7.72;100.00;100032.31;4991383;28;20041;-76
2022/12/28 23:03:46;;;;;;;13.25;11.77;;;8.70;92.10;;;7.70;100.00;100032.34;5005335;28;20508;-76
2022/12/28 23:06:19;;;;;;;12.20;10.98;;;9.10;92.40;;;7.62;100.00;100040.34;5005251;28;20049;-76
2022/12/28 23:08:47;;;;;;;12.80;11.15;;;9.10;92.70;;;7.65;100.00;100034.19;5005313;28;20050;-76
2022/12/28 23:16:55;;;;;;;10.57;8.10;;;9.10;92.70;;;7.77;100.00;100033.94;5005173;28;20049;-76
2022/12/28 23:27:46;;;;;;;8.77;7.43;;;9.00;92.70;;;7.77;100.00;100014.78;5005045;28;20030;-76
2022/12/28 23:30:18;;;;;;;9.77;8.10;;;9.00;92.90;;;7.77;100.00;100013.00;5004963;28;20605;-76
2022/12/28 23:32:52;;;;;;;9.90;8.90;;;9.10;93.20;;;7.75;100.00;100011.31;5005415;28;20037;-76
2022/12/28 23:35:21;;;;;;;11.43;9.80;;;9.50;93.30;;;7.80;100.00;100012.97;5027165;28;20428;-76
2022/12/28 23:37:49;;;;;;;12.75;10.48;;;9.10;93.10;;;7.85;100.00;100007.63;4990895;28;20061;-75
2022/12/28 23:40:18;;;;;;;9.32;7.25;;;9.10;93.20;;;7.77;100.00;100012.16;4989456;28;20765;-75
2022/12/28 23:42:47;;;;;;;6.95;6.20;;;9.10;93.30;;;7.70;100.00;100000.03;5003307;28;20049;-76
2022/12/28 23:45:16;;;;;;;9.48;6.10;;;9.90;93.20;;;7.68;100.00;99989.63;4987128;28;20076;-76
2022/12/28 23:47:44;;;;;;;9.70;7.38;;;10.00;93.40;;;7.72;100.00;99996.50;4986955;28;20068;-76
2022/12/28 23:50:13;;;;;;;8.25;6.38;;;9.10;93.30;;;7.77;100.00;99993.81;4983723;28;20232;-76
2022/12/28 23:52:41;;;;;;;10.63;7.63;;;9.10;93.50;;;7.77;100.00;99996.44;5002759;28;20484;-76
2022/12/28 23:55:09;;;;;;;8.40;6.47;;;9.60;93.70;;;7.72;100.00;99988.66;4988244;28;20050;-75
2022/12/28 23:57:37;;;;;;;6.85;5.25;;;9.10;93.20;;;7.69;100.00;99982.59;4954520;28;20045;-76
